Airfield :
LOGIN :

Register | Disclaimer

   EN    FR    IT 

 










Legend :    VFR   Marginal VFR   IFR   Intensive IFR   Very Intensive IFR
Visi :
Ceiling :
>= 8 km
>= 3000ft
5 to 8 km
1000 to 3000 ft
1500m to 5 km
500 to 1000 ft
800 to 1500m
200 to 500 ft
< 800m
< 200 ft
Symbols :   Thunderstorms  Fog  Heavy snow  Heavy precipitations  Wind > 20 kt
SIGMETs :     Misc.  Thunderstorms  Icing  Turbulence  Mountain Waves  Volcanic Ashes







- Airport Elevation : 502 ft
- IATA code : ORK


EICK - Cork

CURRENT METAR :
  • 160200Z 24008KT 9999 FEW003 SCT014 BKN080 15/14 Q1023 NOSIG

EXPIRED METARs :
  • 160130Z 25008KT 9999 FEW014 SCT045 BKN080 15/14 Q1023 NOSIG
  • 160100Z 24007KT 9999 FEW008 SCT014 BKN045 15/14 Q1024 BECMG BKN008
  • 160030Z 24007KT 9999 FEW008 SCT014 BKN045 15/14 Q1024 BECMG BKN008
  • 160000Z 24007KT 9999 FEW003 SCT014 BKN050 15/14 Q1024 BECMG BKN008
  • 152330Z 23008KT 9999 SCT003 BKN070 15/14 Q1024 BECMG BKN008

TAF TAF EICK
Valid from the 16 at 00:00 until the 17 at 00:00 UTC


152300Z 1600/1624 25008KT 9999 FEW003 BKN015
BECMG 1600/1603 6000 -DZ SCT003 BKN008
PROB40
TEMPO 1600/1603 BKN003
TEMPO 1602/1609 3000 -RADZ BR BKN003
PROB40
TEMPO 1602/1608 0500 FG BKN002
BECMG 1606/1608 30008KT
BECMG 1609/1612 34010KT 9999 SCT008 BKN020
BECMG 1612/1614 02008KT
BECMG 1615/1618 11007KT
BECMG 1618/1621 VRB03KT
BECMG 1621/1624 02005KT
No reported NOTAMs for that airfield.



MET'MAP, your aeronautical weather chart ! - Copyright ORBIFLY December 2007 - Disclaimer

ORBIFLY MET'MAP TEAM :

Programming & Development : Alexandra Zaïnal
Concept & Development : Baudouin d'Aumeries
Co-Development & Prog : Marc-Olivier Méhu
Technical & hardware support : Manuel Goepfert

Contact : metmap@orbifly.com




SOURCES & CREDITS :

   NOAA